createdAt,value
2023-02-08T00:02:18.080Z,102927.44
2023-02-08T00:05:19.635Z,102925.69
2023-02-08T00:08:21.208Z,102920.25
2023-02-08T00:11:22.919Z,102915.81
2023-02-08T00:14:24.455Z,102911.25
2023-02-08T00:17:26.082Z,102911.34
2023-02-08T00:20:28.021Z,102911.34
2023-02-08T00:23:29.522Z,102902.47
2023-02-08T00:26:31.010Z,102904.19
2023-02-08T00:29:32.524Z,102899.75
2023-02-08T00:32:34.083Z,102900.69
2023-02-08T00:35:36.244Z,102897.13
2023-02-08T00:38:38.050Z,102896.25
2023-02-08T00:41:39.505Z,102898.00
2023-02-08T00:44:41.015Z,102898.97
2023-02-08T00:47:42.504Z,102893.63
2023-02-08T00:50:44.055Z,102900.03
2023-02-08T00:53:46.411Z,102896.47
2023-02-08T00:56:48.101Z,102886.56
2023-02-08T00:59:49.609Z,102896.53
2023-02-08T01:02:51.138Z,102894.88
2023-02-08T01:05:53.176Z,102893.16
2023-02-08T01:08:54.676Z,102896.81
2023-02-08T01:11:57.336Z,102906.72
2023-02-08T01:14:58.954Z,102905.81
2023-02-08T01:18:00.878Z,102903.09
2023-02-08T01:21:08.067Z,102895.88
2023-02-08T01:24:10.846Z,102901.38
2023-02-08T01:27:12.372Z,102896.03
2023-02-08T01:30:14.007Z,102892.38
2023-02-08T01:33:15.549Z,102882.47
2023-02-08T01:36:17.546Z,102887.03
2023-02-08T01:39:19.067Z,102885.31
2023-02-08T01:42:20.581Z,102883.53
2023-02-08T01:45:26.454Z,102883.53
2023-02-08T01:48:39.282Z,102884.44
2023-02-08T01:51:52.121Z,102885.38
2023-02-08T01:55:01.929Z,102882.69
2023-02-08T01:58:08.564Z,102889.06
2023-02-08T02:01:11.550Z,102881.88
2023-02-08T02:04:13.404Z,102871.16
2023-02-08T02:07:17.029Z,102870.19
2023-02-08T02:10:24.871Z,102863.91
2023-02-08T02:13:28.076Z,102872.09
2023-02-08T02:16:29.773Z,102870.38
2023-02-08T02:19:37.282Z,102864.97
2023-02-08T02:22:48.185Z,102868.44
2023-02-08T02:26:12.745Z,102857.69
2023-02-08T02:29:33.042Z,102866.69
2023-02-08T02:33:35.427Z,102861.38
2023-02-08T02:36:39.965Z,102854.19
2023-02-08T02:39:52.563Z,102855.19
2023-02-08T02:43:34.421Z,102857.81
2023-02-08T02:46:42.737Z,102854.31
2023-02-08T02:50:13.259Z,102852.56
2023-02-08T02:53:24.630Z,102856.25
2023-02-08T02:56:39.243Z,102862.53
2023-02-08T02:59:42.882Z,102859.94
2023-02-08T03:02:45.015Z,102862.72
2023-02-08T03:05:47.208Z,102857.31
2023-02-08T03:09:08.680Z,102843.75
2023-02-08T03:12:42.011Z,102843.84
2023-02-08T03:15:55.745Z,102835.69
2023-02-08T03:19:09.744Z,102838.41
2023-02-08T03:22:23.336Z,102846.53
2023-02-08T03:25:31.256Z,102841.25
2023-02-08T03:28:37.142Z,102851.09
2023-02-08T03:31:52.962Z,102843.94
2023-02-08T03:35:01.564Z,102851.22
2023-02-08T03:38:13.254Z,102853.03
2023-02-08T03:41:19.310Z,102849.44
2023-02-08T03:44:27.149Z,102850.44
2023-02-08T03:47:33.775Z,102841.44
2023-02-08T03:50:37.726Z,102847.72
2023-02-08T03:53:43.261Z,102848.66
2023-02-08T03:56:59.831Z,102849.66
2023-02-08T04:00:07.929Z,102836.97
2023-02-08T04:03:18.253Z,102842.38
2023-02-08T04:06:21.059Z,102841.59
2023-02-08T04:09:22.523Z,102839.66
2023-02-08T04:12:24.048Z,102844.16
2023-02-08T04:15:27.279Z,102843.16
2023-02-08T04:18:28.838Z,102853.81
2023-02-08T04:21:30.388Z,102854.66
2023-02-08T04:24:31.914Z,102844.63
2023-02-08T04:27:33.393Z,102853.53
2023-02-08T04:30:35.680Z,102851.69
2023-02-08T04:33:37.169Z,102856.16
2023-02-08T04:36:38.690Z,102863.31
2023-02-08T04:39:40.238Z,102852.47
2023-02-08T04:42:41.746Z,102857.88
2023-02-08T04:45:43.244Z,102859.63
2023-02-08T04:48:44.847Z,102857.69
2023-02-08T04:51:46.330Z,102857.69
2023-02-08T04:54:47.849Z,102860.50
2023-02-08T04:57:49.297Z,102862.25
2023-02-08T05:00:50.806Z,102866.69
2023-02-08T05:03:52.280Z,102866.69
2023-02-08T05:06:53.741Z,102872.09
2023-02-08T05:09:55.208Z,102877.66
2023-02-08T05:12:56.737Z,102876.66
2023-02-08T05:15:58.300Z,102877.66
2023-02-08T05:18:59.773Z,102876.78
2023-02-08T05:22:01.468Z,102880.44
2023-02-08T05:25:03.221Z,102879.56
2023-02-08T05:28:05.747Z,102876.09
2023-02-08T05:31:19.902Z,102875.22
2023-02-08T05:34:21.453Z,102876.28
2023-02-08T05:37:22.970Z,102872.78
2023-02-08T05:40:24.657Z,102880.13
2023-02-08T05:43:26.247Z,102873.75
2023-02-08T05:46:27.798Z,102876.56
2023-02-08T05:49:29.515Z,102879.25
2023-02-08T05:52:31.049Z,102878.41
2023-02-08T05:55:32.570Z,102879.25
2023-02-08T05:58:34.103Z,102872.97
2023-02-08T06:01:36.180Z,102868.41
2023-02-08T06:04:39.125Z,102877.34
2023-02-08T06:07:40.757Z,102872.78
2023-02-08T06:10:42.436Z,102871.72
2023-02-08T06:13:44.067Z,102880.63
2023-02-08T06:16:45.660Z,102876.88
2023-02-08T06:19:47.190Z,102869.59
2023-02-08T06:22:48.762Z,102878.59
2023-02-08T06:25:50.858Z,102884.78
2023-02-08T06:28:52.371Z,102871.16
2023-02-08T06:31:53.984Z,102876.59
2023-02-08T06:34:55.709Z,102879.19
2023-02-08T06:37:58.688Z,102881.03
2023-02-08T06:41:00.219Z,102879.19
2023-02-08T06:44:02.381Z,102872.88
2023-02-08T06:47:04.371Z,102873.88
2023-02-08T06:50:06.451Z,102874.81
2023-02-08T06:53:07.948Z,102870.38
2023-02-08T06:56:09.532Z,102869.50
2023-02-08T06:59:11.036Z,102876.78
2023-02-08T07:02:14.685Z,102875.88
2023-02-08T07:05:16.327Z,102883.34
2023-02-08T07:08:17.809Z,102877.13
2023-02-08T07:11:20.539Z,102875.41
2023-02-08T07:14:22.006Z,102869.22
2023-02-08T07:17:23.539Z,102873.75
2023-02-08T07:20:25.111Z,102872.00
2023-02-08T07:23:27.112Z,102888.25
2023-02-08T07:26:28.623Z,102886.59
2023-02-08T07:29:31.460Z,102887.50
2023-02-08T07:32:34.779Z,102887.59
2023-02-08T07:35:36.335Z,102881.19
2023-02-08T07:38:38.448Z,102877.63
2023-02-08T07:41:39.988Z,102868.63
2023-02-08T07:44:41.521Z,102876.75
2023-02-08T07:47:43.014Z,102863.28
2023-02-08T07:50:44.576Z,102874.13
2023-02-08T07:53:46.063Z,102873.25
2023-02-08T07:56:47.720Z,102880.50
2023-02-08T07:59:49.267Z,102869.69
2023-02-08T08:02:51.107Z,102878.78
2023-02-08T08:05:55.017Z,102882.44
2023-02-08T08:08:56.638Z,102869.88
2023-02-08T08:11:58.146Z,102869.88
2023-02-08T08:14:59.639Z,102882.44
2023-02-08T08:18:01.144Z,102868.91
2023-02-08T08:21:03.705Z,102874.31
2023-02-08T08:24:05.450Z,102880.59
2023-02-08T08:27:07.568Z,102884.22
2023-02-08T08:30:12.753Z,102875.19
2023-02-08T08:33:14.410Z,102872.59
2023-02-08T08:36:16.339Z,102875.19
2023-02-08T08:39:17.792Z,102860.88
2023-02-08T08:42:20.408Z,102863.59
2023-02-08T08:45:21.942Z,102861.75
2023-02-08T08:48:23.458Z,102859.91
2023-02-08T08:51:24.924Z,102855.47
2023-02-08T08:54:26.380Z,102849.91
2023-02-08T08:57:27.867Z,102845.28
2023-02-08T09:00:29.421Z,102847.13
2023-02-08T09:03:31.138Z,102839.88
2023-02-08T09:06:32.700Z,102834.44
2023-02-08T09:09:34.794Z,102848.97
2023-02-08T09:12:36.603Z,102839.00
2023-02-08T09:15:40.145Z,102835.31
2023-02-08T09:18:42.602Z,102840.84
2023-02-08T09:21:44.514Z,102830.94
2023-02-08T09:24:46.151Z,102839.94
2023-02-08T09:27:47.597Z,102828.25
2023-02-08T09:30:49.106Z,102834.53
2023-02-08T09:33:51.667Z,102846.16
2023-02-08T09:36:53.209Z,102848.84
2023-02-08T09:39:54.808Z,102852.56
2023-02-08T09:43:13.174Z,102850.63
2023-02-08T09:46:21.742Z,102857.84
2023-02-08T09:49:30.860Z,102860.50
2023-02-08T09:52:38.692Z,102864.94
2023-02-08T09:55:50.197Z,102863.97
2023-02-08T09:58:53.116Z,102878.31
2023-02-08T10:02:21.238Z,102870.84
2023-02-08T10:05:26.182Z,102871.72
2023-02-08T10:08:35.248Z,102866.09
2023-02-08T10:12:22.614Z,102869.50
2023-02-08T10:15:56.369Z,102873.75
2023-02-08T10:19:06.816Z,102868.25
2023-02-08T10:22:23.434Z,102868.91
2023-02-08T10:25:33.297Z,102872.41
2023-02-08T10:28:51.361Z,102855.09
2023-02-08T10:32:35.120Z,102855.00
2023-02-08T10:35:48.380Z,102852.16
2023-02-08T10:38:53.013Z,102843.94
2023-02-08T10:41:55.191Z,102843.09
2023-02-08T10:45:24.276Z,102837.53
2023-02-08T10:48:44.738Z,102834.75
2023-02-08T10:51:47.290Z,102832.03
2023-02-08T10:54:49.067Z,102838.44
2023-02-08T10:57:55.657Z,102836.47
2023-02-08T11:00:58.350Z,102831.84
2023-02-08T11:04:11.191Z,102822.75
2023-02-08T11:07:21.388Z,102826.13
2023-02-08T11:10:25.095Z,102821.56
2023-02-08T11:13:43.116Z,102829.50
2023-02-08T11:16:56.062Z,102821.28
2023-02-08T11:19:58.886Z,102826.69
2023-02-08T11:23:00.944Z,102825.72
2023-02-08T11:26:31.586Z,102824.66
2023-02-08T11:29:33.183Z,102818.47
2023-02-08T11:32:35.398Z,102814.00
2023-02-08T11:35:37.762Z,102815.00
2023-02-08T11:38:42.686Z,102820.28
2023-02-08T11:41:47.329Z,102822.16
2023-02-08T11:44:50.460Z,102826.69
2023-02-08T11:47:52.524Z,102823.13
2023-02-08T11:50:57.827Z,102821.19
2023-02-08T11:54:00.550Z,102827.47
2023-02-08T11:57:10.400Z,102831.84
2023-02-08T12:00:25.375Z,102830.84
2023-02-08T12:03:36.105Z,102824.47
2023-02-08T12:06:57.038Z,102822.72
2023-02-08T12:09:58.611Z,102812.84
2023-02-08T12:13:12.231Z,102811.09
2023-02-08T12:16:36.588Z,102807.72
2023-02-08T12:20:06.854Z,102803.28
2023-02-08T12:23:23.737Z,102804.13
2023-02-08T12:26:49.592Z,102804.03
2023-02-08T12:30:20.637Z,102799.56
2023-02-08T12:33:44.926Z,102784.38
2023-02-08T12:37:23.433Z,102785.34
2023-02-08T12:40:55.145Z,102777.22
2023-02-08T12:44:24.774Z,102777.22
2023-02-08T12:47:54.779Z,102773.72
2023-02-08T12:51:51.083Z,102772.97
2023-02-08T12:55:01.568Z,102762.19
2023-02-08T12:58:50.302Z,102756.88
2023-02-08T13:01:57.153Z,102742.34
2023-02-08T13:05:03.964Z,102741.47
2023-02-08T13:08:24.168Z,102738.69
2023-02-08T13:11:42.797Z,102743.91
2023-02-08T13:14:50.455Z,102728.59
2023-02-08T13:17:55.605Z,102727.63
2023-02-08T13:21:01.882Z,102723.06
2023-02-08T13:24:10.417Z,102723.94
2023-02-08T13:27:21.616Z,102706.81
2023-02-08T13:30:24.091Z,102708.66
2023-02-08T13:33:34.663Z,102701.28
2023-02-08T13:36:39.807Z,102695.88
2023-02-08T13:39:44.596Z,102690.44
2023-02-08T13:43:12.140Z,102688.59
2023-02-08T13:46:14.314Z,102693.16
2023-02-08T13:49:42.522Z,102683.16
2023-02-08T13:52:48.492Z,102684.03
2023-02-08T13:55:59.556Z,102685.66
2023-02-08T13:59:01.629Z,102668.53
2023-02-08T14:02:12.155Z,102672.09
2023-02-08T14:05:43.005Z,102671.13
2023-02-08T14:08:56.842Z,102664.75
2023-02-08T14:12:05.949Z,102652.91
2023-02-08T14:15:16.415Z,102654.75
2023-02-08T14:18:27.808Z,102662.91
2023-02-08T14:22:02.868Z,102649.53
2023-02-08T14:25:07.913Z,102649.84
2023-02-08T14:28:25.279Z,102642.50
2023-02-08T14:31:40.457Z,102633.56
2023-02-08T14:34:42.058Z,102649.06
2023-02-08T14:37:45.020Z,102644.63
2023-02-08T14:40:58.921Z,102643.78
2023-02-08T14:44:38.607Z,102637.47
2023-02-08T14:47:40.506Z,102637.66
2023-02-08T14:50:51.960Z,102625.97
2023-02-08T14:53:53.398Z,102622.47
2023-02-08T14:57:00.275Z,102623.47
2023-02-08T15:00:08.477Z,102618.91
2023-02-08T15:03:14.675Z,102626.16
2023-02-08T15:06:25.966Z,102616.28
2023-02-08T15:09:32.641Z,102605.56
2023-02-08T15:12:37.437Z,102593.94
2023-02-08T15:15:42.541Z,102605.75
2023-02-08T15:18:48.595Z,102604.88
2023-02-08T15:21:50.193Z,102609.44
2023-02-08T15:25:01.547Z,102596.00
2023-02-08T15:28:18.378Z,102593.28
2023-02-08T15:31:23.170Z,102595.09
2023-02-08T15:34:26.410Z,102587.94
2023-02-08T15:37:32.669Z,102584.25
2023-02-08T15:40:35.047Z,102582.53
2023-02-08T15:43:38.346Z,102576.25
2023-02-08T15:46:41.750Z,102574.41
2023-02-08T15:49:45.757Z,102581.53
2023-02-08T15:52:50.065Z,102580.59
2023-02-08T15:55:57.689Z,102576.03
2023-02-08T15:59:01.461Z,102579.53
2023-02-08T16:02:29.918Z,102575.72
2023-02-08T16:05:33.514Z,102573.88
2023-02-08T16:08:39.730Z,102578.31
2023-02-08T16:11:44.170Z,102575.50
2023-02-08T16:14:52.491Z,102579.00
2023-02-08T16:17:54.385Z,102574.44
2023-02-08T16:21:05.408Z,102575.22
2023-02-08T16:24:20.308Z,102575.09
2023-02-08T16:27:30.154Z,102568.72
2023-02-08T16:30:32.304Z,102568.59
2023-02-08T16:33:37.223Z,102569.47
2023-02-08T16:36:45.306Z,102566.56
2023-02-08T16:39:55.471Z,102565.56
2023-02-08T16:43:18.101Z,102564.72
2023-02-08T16:46:22.292Z,102571.13
2023-02-08T16:49:24.320Z,102561.13
2023-02-08T16:52:25.835Z,102548.66
2023-02-08T16:55:31.659Z,102545.06
2023-02-08T16:58:33.255Z,102545.16
2023-02-08T17:01:35.648Z,102537.03
2023-02-08T17:04:37.174Z,102531.81
2023-02-08T17:07:38.677Z,102531.81
2023-02-08T17:10:40.160Z,102519.22
2023-02-08T17:13:41.628Z,102511.22
2023-02-08T17:16:43.852Z,102506.66
2023-02-08T17:19:46.911Z,102495.81
2023-02-08T17:22:49.271Z,102503.06
2023-02-08T17:25:51.437Z,102496.78
2023-02-08T17:28:56.855Z,102500.38
2023-02-08T17:31:58.317Z,102490.38
2023-02-08T17:35:00.525Z,102482.25
2023-02-08T17:38:02.048Z,102484.09
2023-02-08T17:41:03.965Z,102482.16
2023-02-08T17:44:06.006Z,102472.25
2023-02-08T17:47:07.465Z,102469.56
2023-02-08T17:50:12.345Z,102474.13
2023-02-08T17:53:14.146Z,102473.13
2023-02-08T17:56:18.591Z,102467.72
2023-02-08T17:59:20.074Z,102461.31
2023-02-08T18:02:21.662Z,102459.47
2023-02-08T18:05:25.303Z,102455.69
2023-02-08T18:08:27.546Z,102442.13
2023-02-08T18:11:29.024Z,102437.56
2023-02-08T18:14:30.695Z,102439.31
2023-02-08T18:17:32.987Z,102431.19
2023-02-08T18:20:34.470Z,102426.63
2023-02-08T18:23:35.973Z,102404.81
2023-02-08T18:26:37.589Z,102399.19
2023-02-08T18:29:39.044Z,102401.78
2023-02-08T18:32:40.538Z,102390.81
2023-02-08T18:35:48.390Z,102397.88
2023-02-08T18:38:52.259Z,102384.19
2023-02-08T18:41:54.594Z,102379.53
2023-02-08T18:44:56.207Z,102383.09
2023-02-08T18:47:58.728Z,102378.44
2023-02-08T18:51:02.809Z,102384.63
2023-02-08T18:54:04.335Z,102374.53
2023-02-08T18:57:06.238Z,102372.59
2023-02-08T19:00:08.453Z,102386.88
2023-02-08T19:03:10.038Z,102386.78
2023-02-08T19:06:14.669Z,102385.69
2023-02-08T19:09:16.206Z,102372.22
2023-02-08T19:12:18.893Z,102374.84
2023-02-08T19:15:20.340Z,102366.72
2023-02-08T19:18:22.245Z,102372.13
2023-02-08T19:21:24.050Z,102355.75
2023-02-08T19:24:25.587Z,102341.44
2023-02-08T19:27:27.239Z,102346.19
2023-02-08T19:30:28.878Z,102353.69
2023-02-08T19:33:30.460Z,102346.56
2023-02-08T19:36:38.084Z,102339.28
2023-02-08T19:39:39.702Z,102335.91
2023-02-08T19:42:43.687Z,102341.31
2023-02-08T19:45:45.703Z,102346.88
2023-02-08T19:48:49.163Z,102343.31
2023-02-08T19:51:50.665Z,102344.25
2023-02-08T19:54:52.924Z,102344.50
2023-02-08T19:57:54.408Z,102341.69
2023-02-08T20:00:56.234Z,102345.25
2023-02-08T20:03:57.788Z,102340.78
2023-02-08T20:06:59.268Z,102340.69
2023-02-08T20:10:00.938Z,102331.69
2023-02-08T20:13:02.387Z,102333.53
2023-02-08T20:16:04.183Z,102333.53
2023-02-08T20:19:05.812Z,102337.22
2023-02-08T20:22:07.519Z,102331.78
2023-02-08T20:25:09.087Z,102335.50
2023-02-08T20:28:10.594Z,102338.31
2023-02-08T20:31:14.092Z,102343.72
2023-02-08T20:34:18.492Z,102346.44
2023-02-08T20:37:21.060Z,102350.16
2023-02-08T20:40:22.528Z,102354.72
2023-02-08T20:43:23.975Z,102361.00
2023-02-08T20:46:31.022Z,102358.16
2023-02-08T20:49:32.708Z,102342.97
2023-02-08T20:52:34.337Z,102346.66
2023-02-08T20:55:43.656Z,102340.38
2023-02-08T20:58:46.088Z,102337.69
2023-02-08T21:01:47.669Z,102331.38
2023-02-08T21:04:49.227Z,102340.47
2023-02-08T21:07:50.719Z,102338.75
2023-02-08T21:10:52.208Z,102350.47
2023-02-08T21:13:54.986Z,102349.59
2023-02-08T21:16:58.713Z,102351.31
2023-02-08T21:20:00.265Z,102342.44
2023-02-08T21:23:01.738Z,102358.59
2023-02-08T21:26:05.495Z,102358.50
2023-02-08T21:29:07.354Z,102363.94
2023-02-08T21:32:08.883Z,102371.16
2023-02-08T21:35:10.837Z,102363.03
2023-02-08T21:38:12.297Z,102363.03
2023-02-08T21:41:29.054Z,102356.66
2023-02-08T21:44:32.942Z,102359.47
2023-02-08T21:47:34.488Z,102349.59
2023-02-08T21:50:57.161Z,102350.47
2023-02-08T21:54:17.106Z,102347.84
2023-02-08T21:57:30.206Z,102353.19
2023-02-08T22:00:31.720Z,102343.41
2023-02-08T22:03:34.406Z,102342.56
2023-02-08T22:06:35.931Z,102342.56
2023-02-08T22:09:39.603Z,102336.38
2023-02-08T22:12:41.845Z,102322.81
2023-02-08T22:15:43.382Z,102329.22
2023-02-08T22:18:44.827Z,102317.63
2023-02-08T22:21:46.329Z,102319.47
2023-02-08T22:24:47.798Z,102308.72
2023-02-08T22:27:49.406Z,102307.00
2023-02-08T22:30:51.275Z,102307.00
2023-02-08T22:33:53.559Z,102309.81
2023-02-08T22:36:55.197Z,102302.66
2023-02-08T22:39:56.726Z,102293.63
2023-02-08T22:42:58.294Z,102285.63
2023-02-08T22:46:00.617Z,102287.34
2023-02-08T22:49:02.486Z,102286.50
2023-02-08T22:52:05.534Z,102282.06
2023-02-08T22:55:07.634Z,102288.44
2023-02-08T22:58:09.151Z,102292.91
2023-02-08T23:01:15.851Z,102286.59
2023-02-08T23:04:17.358Z,102299.28
2023-02-08T23:07:18.915Z,102301.13
2023-02-08T23:10:20.438Z,102307.56
2023-02-08T23:13:21.938Z,102294.94
2023-02-08T23:16:23.820Z,102299.50
2023-02-08T23:19:25.706Z,102299.50
2023-02-08T23:22:27.228Z,102286.06
2023-02-08T23:25:28.737Z,102283.34
2023-02-08T23:28:30.291Z,102287.91
2023-02-08T23:31:31.878Z,102280.75
2023-02-08T23:34:34.703Z,102270.78
2023-02-08T23:37:36.376Z,102267.22
2023-02-08T23:40:40.860Z,102265.34
2023-02-08T23:43:42.806Z,102269.91
2023-02-08T23:46:44.327Z,102271.00
2023-02-08T23:49:45.862Z,102265.47
2023-02-08T23:52:47.362Z,102251.19
2023-02-08T23:55:48.840Z,102252.03
2023-02-08T23:58:53.732Z,102255.59
